sensor_id;sensor_type;location;lat;lon;timestamp;P1;durP1;ratioP1;P2;durP2;ratioP2
75655;SDS011;64252;51.094;13.714;2023-04-24T00:01:55;5.07;;;3.28;;
75655;SDS011;64252;51.094;13.714;2023-04-24T00:04:21;6.03;;;3.20;;
75655;SDS011;64252;51.094;13.714;2023-04-24T00:06:47;5.25;;;3.17;;
75655;SDS011;64252;51.094;13.714;2023-04-24T00:09:14;6.10;;;2.85;;
75655;SDS011;64252;51.094;13.714;2023-04-24T00:11:40;6.20;;;3.47;;
75655;SDS011;64252;51.094;13.714;2023-04-24T00:14:06;5.53;;;3.30;;
75655;SDS011;64252;51.094;13.714;2023-04-24T00:16:31;6.00;;;3.20;;
75655;SDS011;64252;51.094;13.714;2023-04-24T00:18:57;5.93;;;3.30;;
75655;SDS011;64252;51.094;13.714;2023-04-24T00:21:23;6.57;;;2.95;;
75655;SDS011;64252;51.094;13.714;2023-04-24T00:23:50;7.05;;;3.90;;
75655;SDS011;64252;51.094;13.714;2023-04-24T00:26:16;5.43;;;3.33;;
75655;SDS011;64252;51.094;13.714;2023-04-24T00:28:42;7.65;;;3.88;;
75655;SDS011;64252;51.094;13.714;2023-04-24T00:31:07;6.45;;;3.33;;
75655;SDS011;64252;51.094;13.714;2023-04-24T00:33:33;7.95;;;4.10;;
75655;SDS011;64252;51.094;13.714;2023-04-24T00:35:59;6.55;;;3.50;;
75655;SDS011;64252;51.094;13.714;2023-04-24T00:38:24;5.10;;;3.05;;
75655;SDS011;64252;51.094;13.714;2023-04-24T00:40:50;6.95;;;3.38;;
75655;SDS011;64252;51.094;13.714;2023-04-24T00:43:16;6.07;;;3.33;;
75655;SDS011;64252;51.094;13.714;2023-04-24T00:45:42;6.20;;;3.70;;
75655;SDS011;64252;51.094;13.714;2023-04-24T00:48:08;4.72;;;2.85;;
75655;SDS011;64252;51.094;13.714;2023-04-24T00:50:35;8.15;;;3.40;;
75655;SDS011;64252;51.094;13.714;2023-04-24T00:53:01;6.05;;;3.38;;
75655;SDS011;64252;51.094;13.714;2023-04-24T00:55:27;5.75;;;3.22;;
75655;SDS011;64252;51.094;13.714;2023-04-24T00:57:53;6.13;;;3.13;;
75655;SDS011;64252;51.094;13.714;2023-04-24T01:00:19;4.72;;;2.95;;
75655;SDS011;64252;51.094;13.714;2023-04-24T01:02:45;5.70;;;3.00;;
75655;SDS011;64252;51.094;13.714;2023-04-24T01:05:12;7.25;;;3.17;;
75655;SDS011;64252;51.094;13.714;2023-04-24T01:07:38;6.20;;;2.95;;
75655;SDS011;64252;51.094;13.714;2023-04-24T01:10:06;5.72;;;2.72;;
75655;SDS011;64252;51.094;13.714;2023-04-24T01:12:33;5.00;;;3.10;;
75655;SDS011;64252;51.094;13.714;2023-04-24T01:14:59;4.40;;;2.70;;
75655;SDS011;64252;51.094;13.714;2023-04-24T01:17:25;5.65;;;3.05;;
75655;SDS011;64252;51.094;13.714;2023-04-24T01:19:50;4.50;;;2.75;;
75655;SDS011;64252;51.094;13.714;2023-04-24T01:22:22;6.47;;;3.53;;
75655;SDS011;64252;51.094;13.714;2023-04-24T01:24:48;5.13;;;3.20;;
75655;SDS011;64252;51.094;13.714;2023-04-24T01:27:14;5.72;;;3.47;;
75655;SDS011;64252;51.094;13.714;2023-04-24T01:29:40;7.55;;;3.53;;
75655;SDS011;64252;51.094;13.714;2023-04-24T01:32:06;5.57;;;3.33;;
75655;SDS011;64252;51.094;13.714;2023-04-24T01:34:31;6.72;;;3.53;;
75655;SDS011;64252;51.094;13.714;2023-04-24T01:36:58;6.65;;;3.30;;
75655;SDS011;64252;51.094;13.714;2023-04-24T01:39:23;5.57;;;3.17;;
75655;SDS011;64252;51.094;13.714;2023-04-24T01:41:52;6.00;;;3.28;;
75655;SDS011;64252;51.094;13.714;2023-04-24T01:44:18;7.18;;;3.80;;
75655;SDS011;64252;51.094;13.714;2023-04-24T01:46:44;8.60;;;3.97;;
75655;SDS011;64252;51.094;13.714;2023-04-24T01:49:10;8.73;;;3.70;;
75655;SDS011;64252;51.094;13.714;2023-04-24T01:51:37;7.50;;;3.55;;
75655;SDS011;64252;51.094;13.714;2023-04-24T01:54:03;5.20;;;3.00;;
75655;SDS011;64252;51.094;13.714;2023-04-24T01:56:29;5.20;;;3.05;;
75655;SDS011;64252;51.094;13.714;2023-04-24T01:58:55;6.47;;;3.35;;
75655;SDS011;64252;51.094;13.714;2023-04-24T02:01:25;4.38;;;2.63;;
75655;SDS011;64252;51.094;13.714;2023-04-24T02:03:51;6.40;;;3.17;;
75655;SDS011;64252;51.094;13.714;2023-04-24T02:06:17;4.72;;;3.20;;
75655;SDS011;64252;51.094;13.714;2023-04-24T02:08:42;6.78;;;2.80;;
75655;SDS011;64252;51.094;13.714;2023-04-24T02:11:08;7.10;;;3.03;;
75655;SDS011;64252;51.094;13.714;2023-04-24T02:13:34;5.45;;;3.25;;
75655;SDS011;64252;51.094;13.714;2023-04-24T02:16:00;6.45;;;3.35;;
75655;SDS011;64252;51.094;13.714;2023-04-24T02:18:26;7.20;;;3.40;;
75655;SDS011;64252;51.094;13.714;2023-04-24T02:20:51;6.00;;;3.55;;
75655;SDS011;64252;51.094;13.714;2023-04-24T02:23:17;5.47;;;2.90;;
75655;SDS011;64252;51.094;13.714;2023-04-24T02:25:44;5.63;;;3.13;;
75655;SDS011;64252;51.094;13.714;2023-04-24T02:28:09;4.50;;;2.50;;
75655;SDS011;64252;51.094;13.714;2023-04-24T02:30:35;6.35;;;2.60;;
75655;SDS011;64252;51.094;13.714;2023-04-24T02:33:00;5.90;;;3.17;;
75655;SDS011;64252;51.094;13.714;2023-04-24T02:35:26;7.63;;;3.20;;
75655;SDS011;64252;51.094;13.714;2023-04-24T02:37:52;7.28;;;3.20;;
75655;SDS011;64252;51.094;13.714;2023-04-24T02:40:17;6.03;;;2.90;;
75655;SDS011;64252;51.094;13.714;2023-04-24T02:42:43;6.03;;;3.35;;
75655;SDS011;64252;51.094;13.714;2023-04-24T02:45:08;5.03;;;3.25;;
75655;SDS011;64252;51.094;13.714;2023-04-24T02:47:34;6.63;;;2.60;;
75655;SDS011;64252;51.094;13.714;2023-04-24T02:50:00;5.70;;;3.25;;
75655;SDS011;64252;51.094;13.714;2023-04-24T02:52:28;5.75;;;3.10;;
75655;SDS011;64252;51.094;13.714;2023-04-24T02:54:53;6.97;;;2.70;;
75655;SDS011;64252;51.094;13.714;2023-04-24T02:57:19;6.63;;;3.15;;
75655;SDS011;64252;51.094;13.714;2023-04-24T02:59:45;5.38;;;3.42;;
75655;SDS011;64252;51.094;13.714;2023-04-24T03:02:10;6.00;;;3.58;;
75655;SDS011;64252;51.094;13.714;2023-04-24T03:04:36;8.27;;;3.33;;
75655;SDS011;64252;51.094;13.714;2023-04-24T03:07:02;4.95;;;2.88;;
75655;SDS011;64252;51.094;13.714;2023-04-24T03:09:27;5.82;;;2.90;;
75655;SDS011;64252;51.094;13.714;2023-04-24T03:11:53;5.15;;;3.08;;
75655;SDS011;64252;51.094;13.714;2023-04-24T03:14:18;6.72;;;3.10;;
75655;SDS011;64252;51.094;13.714;2023-04-24T03:16:44;5.18;;;2.80;;
75655;SDS011;64252;51.094;13.714;2023-04-24T03:19:10;5.63;;;3.28;;
75655;SDS011;64252;51.094;13.714;2023-04-24T03:21:44;5.68;;;2.70;;
75655;SDS011;64252;51.094;13.714;2023-04-24T03:24:10;5.47;;;3.30;;
75655;SDS011;64252;51.094;13.714;2023-04-24T03:26:36;6.13;;;2.60;;
75655;SDS011;64252;51.094;13.714;2023-04-24T03:29:38;4.50;;;2.20;;
75655;SDS011;64252;51.094;13.714;2023-04-24T03:32:04;5.07;;;2.00;;
75655;SDS011;64252;51.094;13.714;2023-04-24T03:34:31;4.82;;;2.50;;
75655;SDS011;64252;51.094;13.714;2023-04-24T03:36:57;4.40;;;2.50;;
75655;SDS011;64252;51.094;13.714;2023-04-24T03:39:24;4.30;;;2.00;;
75655;SDS011;64252;51.094;13.714;2023-04-24T03:41:53;5.40;;;2.00;;
75655;SDS011;64252;51.094;13.714;2023-04-24T03:44:23;3.38;;;1.85;;
75655;SDS011;64252;51.094;13.714;2023-04-24T03:46:49;3.35;;;1.77;;
75655;SDS011;64252;51.094;13.714;2023-04-24T03:49:16;2.83;;;1.25;;
75655;SDS011;64252;51.094;13.714;2023-04-24T03:51:44;6.43;;;1.15;;
75655;SDS011;64252;51.094;13.714;2023-04-24T03:54:17;3.78;;;1.20;;
75655;SDS011;64252;51.094;13.714;2023-04-24T03:56:44;4.55;;;1.25;;
75655;SDS011;64252;51.094;13.714;2023-04-24T03:59:10;3.08;;;0.85;;
75655;SDS011;64252;51.094;13.714;2023-04-24T04:01:36;3.55;;;1.27;;
75655;SDS011;64252;51.094;13.714;2023-04-24T04:04:09;4.68;;;1.20;;
75655;SDS011;64252;51.094;13.714;2023-04-24T04:06:35;3.85;;;1.20;;
75655;SDS011;64252;51.094;13.714;2023-04-24T04:09:01;2.75;;;0.90;;
75655;SDS011;64252;51.094;13.714;2023-04-24T04:11:28;2.45;;;0.65;;
75655;SDS011;64252;51.094;13.714;2023-04-24T04:13:55;2.50;;;0.90;;
75655;SDS011;64252;51.094;13.714;2023-04-24T04:16:22;3.28;;;0.68;;
75655;SDS011;64252;51.094;13.714;2023-04-24T04:18:51;3.67;;;0.90;;
75655;SDS011;64252;51.094;13.714;2023-04-24T04:21:16;2.67;;;0.80;;
75655;SDS011;64252;51.094;13.714;2023-04-24T04:23:43;2.60;;;0.80;;
75655;SDS011;64252;51.094;13.714;2023-04-24T04:26:16;2.30;;;0.90;;
75655;SDS011;64252;51.094;13.714;2023-04-24T04:29:02;2.20;;;0.80;;
75655;SDS011;64252;51.094;13.714;2023-04-24T04:31:29;3.40;;;0.80;;
75655;SDS011;64252;51.094;13.714;2023-04-24T04:33:58;5.18;;;0.73;;
75655;SDS011;64252;51.094;13.714;2023-04-24T04:36:24;2.42;;;0.70;;
75655;SDS011;64252;51.094;13.714;2023-04-24T04:38:58;2.20;;;0.60;;
75655;SDS011;64252;51.094;13.714;2023-04-24T04:41:50;3.10;;;0.70;;
75655;SDS011;64252;51.094;13.714;2023-04-24T04:44:21;4.55;;;0.52;;
75655;SDS011;64252;51.094;13.714;2023-04-24T04:46:46;2.15;;;0.65;;
75655;SDS011;64252;51.094;13.714;2023-04-24T04:49:27;1.98;;;0.70;;
75655;SDS011;64252;51.094;13.714;2023-04-24T04:51:54;3.92;;;0.80;;
75655;SDS011;64252;51.094;13.714;2023-04-24T04:54:22;1.92;;;0.60;;
75655;SDS011;64252;51.094;13.714;2023-04-24T04:56:49;2.63;;;0.65;;
75655;SDS011;64252;51.094;13.714;2023-04-24T04:59:15;3.10;;;0.70;;
75655;SDS011;64252;51.094;13.714;2023-04-24T05:01:41;4.15;;;0.60;;
75655;SDS011;64252;51.094;13.714;2023-04-24T05:04:08;4.75;;;0.82;;
75655;SDS011;64252;51.094;13.714;2023-04-24T05:06:36;1.90;;;0.70;;
75655;SDS011;64252;51.094;13.714;2023-04-24T05:09:01;3.03;;;0.60;;
75655;SDS011;64252;51.094;13.714;2023-04-24T05:11:44;1.98;;;0.60;;
75655;SDS011;64252;51.094;13.714;2023-04-24T05:14:10;1.73;;;0.52;;
75655;SDS011;64252;51.094;13.714;2023-04-24T05:16:39;2.53;;;0.70;;
75655;SDS011;64252;51.094;13.714;2023-04-24T05:19:06;3.95;;;0.70;;
75655;SDS011;64252;51.094;13.714;2023-04-24T05:21:35;2.10;;;0.50;;
75655;SDS011;64252;51.094;13.714;2023-04-24T05:24:01;2.78;;;0.80;;
75655;SDS011;64252;51.094;13.714;2023-04-24T05:26:44;2.10;;;0.60;;
75655;SDS011;64252;51.094;13.714;2023-04-24T05:29:11;3.95;;;0.80;;
75655;SDS011;64252;51.094;13.714;2023-04-24T05:31:37;1.52;;;0.57;;
75655;SDS011;64252;51.094;13.714;2023-04-24T05:34:03;2.13;;;0.60;;
75655;SDS011;64252;51.094;13.714;2023-04-24T05:36:28;3.42;;;0.90;;
75655;SDS011;64252;51.094;13.714;2023-04-24T05:38:54;2.78;;;0.70;;
75655;SDS011;64252;51.094;13.714;2023-04-24T05:41:23;1.58;;;0.57;;
75655;SDS011;64252;51.094;13.714;2023-04-24T05:43:49;2.72;;;0.70;;
75655;SDS011;64252;51.094;13.714;2023-04-24T05:46:14;2.80;;;0.88;;
75655;SDS011;64252;51.094;13.714;2023-04-24T05:48:40;4.07;;;0.98;;
75655;SDS011;64252;51.094;13.714;2023-04-24T05:51:06;2.97;;;0.70;;
75655;SDS011;64252;51.094;13.714;2023-04-24T05:53:33;2.95;;;0.80;;
75655;SDS011;64252;51.094;13.714;2023-04-24T05:55:59;2.58;;;0.55;;
75655;SDS011;64252;51.094;13.714;2023-04-24T05:58:26;3.83;;;0.80;;
75655;SDS011;64252;51.094;13.714;2023-04-24T06:00:51;3.40;;;1.00;;
75655;SDS011;64252;51.094;13.714;2023-04-24T06:03:17;3.05;;;0.60;;
75655;SDS011;64252;51.094;13.714;2023-04-24T06:05:42;3.17;;;0.70;;
75655;SDS011;64252;51.094;13.714;2023-04-24T06:08:08;3.58;;;0.85;;
75655;SDS011;64252;51.094;13.714;2023-04-24T06:10:38;1.80;;;0.60;;
75655;SDS011;64252;51.094;13.714;2023-04-24T06:13:05;3.63;;;0.70;;
75655;SDS011;64252;51.094;13.714;2023-04-24T06:15:34;4.03;;;0.60;;
75655;SDS011;64252;51.094;13.714;2023-04-24T06:18:07;2.47;;;0.60;;
75655;SDS011;64252;51.094;13.714;2023-04-24T06:20:35;2.47;;;0.80;;
75655;SDS011;64252;51.094;13.714;2023-04-24T06:23:01;2.88;;;0.60;;
75655;SDS011;64252;51.094;13.714;2023-04-24T06:25:27;2.00;;;0.50;;
75655;SDS011;64252;51.094;13.714;2023-04-24T06:27:53;2.63;;;0.70;;
75655;SDS011;64252;51.094;13.714;2023-04-24T06:30:19;2.20;;;0.70;;
75655;SDS011;64252;51.094;13.714;2023-04-24T06:32:45;2.38;;;0.68;;
75655;SDS011;64252;51.094;13.714;2023-04-24T06:35:10;1.67;;;0.43;;
75655;SDS011;64252;51.094;13.714;2023-04-24T06:37:38;3.42;;;0.70;;
75655;SDS011;64252;51.094;13.714;2023-04-24T06:40:05;2.40;;;0.60;;
75655;SDS011;64252;51.094;13.714;2023-04-24T06:42:31;4.13;;;0.90;;
75655;SDS011;64252;51.094;13.714;2023-04-24T06:44:56;2.65;;;0.70;;
75655;SDS011;64252;51.094;13.714;2023-04-24T06:47:22;2.53;;;0.70;;
75655;SDS011;64252;51.094;13.714;2023-04-24T06:49:47;2.95;;;0.80;;
75655;SDS011;64252;51.094;13.714;2023-04-24T06:52:13;2.30;;;0.50;;
75655;SDS011;64252;51.094;13.714;2023-04-24T06:54:38;2.17;;;0.65;;
75655;SDS011;64252;51.094;13.714;2023-04-24T06:57:04;2.08;;;0.93;;
75655;SDS011;64252;51.094;13.714;2023-04-24T06:59:29;1.58;;;0.50;;
75655;SDS011;64252;51.094;13.714;2023-04-24T07:01:56;4.30;;;0.45;;
75655;SDS011;64252;51.094;13.714;2023-04-24T07:04:21;3.22;;;0.70;;
75655;SDS011;64252;51.094;13.714;2023-04-24T07:06:47;2.83;;;0.60;;
75655;SDS011;64252;51.094;13.714;2023-04-24T07:09:14;1.10;;;0.45;;
75655;SDS011;64252;51.094;13.714;2023-04-24T07:11:41;1.63;;;0.40;;
75655;SDS011;64252;51.094;13.714;2023-04-24T07:14:07;1.50;;;0.40;;
75655;SDS011;64252;51.094;13.714;2023-04-24T07:16:33;1.58;;;0.60;;
75655;SDS011;64252;51.094;13.714;2023-04-24T07:18:58;1.90;;;0.50;;
75655;SDS011;64252;51.094;13.714;2023-04-24T07:21:24;1.40;;;0.43;;
75655;SDS011;64252;51.094;13.714;2023-04-24T07:23:50;3.47;;;0.60;;
75655;SDS011;64252;51.094;13.714;2023-04-24T07:26:16;1.88;;;0.50;;
75655;SDS011;64252;51.094;13.714;2023-04-24T07:28:42;1.67;;;0.45;;
75655;SDS011;64252;51.094;13.714;2023-04-24T07:31:08;2.13;;;0.50;;
75655;SDS011;64252;51.094;13.714;2023-04-24T07:33:33;3.35;;;0.60;;
75655;SDS011;64252;51.094;13.714;2023-04-24T07:35:59;3.85;;;0.80;;
75655;SDS011;64252;51.094;13.714;2023-04-24T07:38:25;3.13;;;0.70;;
75655;SDS011;64252;51.094;13.714;2023-04-24T07:40:51;1.80;;;0.50;;
75655;SDS011;64252;51.094;13.714;2023-04-24T07:43:17;2.72;;;0.90;;
75655;SDS011;64252;51.094;13.714;2023-04-24T07:45:45;3.88;;;0.57;;
75655;SDS011;64252;51.094;13.714;2023-04-24T07:48:11;1.60;;;0.40;;
75655;SDS011;64252;51.094;13.714;2023-04-24T07:50:39;1.77;;;0.50;;
75655;SDS011;64252;51.094;13.714;2023-04-24T07:53:05;1.85;;;0.57;;
75655;SDS011;64252;51.094;13.714;2023-04-24T07:55:30;1.42;;;0.40;;
75655;SDS011;64252;51.094;13.714;2023-04-24T07:57:56;2.88;;;0.63;;
75655;SDS011;64252;51.094;13.714;2023-04-24T08:00:21;1.95;;;0.50;;
75655;SDS011;64252;51.094;13.714;2023-04-24T08:02:47;2.20;;;0.70;;
75655;SDS011;64252;51.094;13.714;2023-04-24T08:05:12;2.08;;;0.50;;
75655;SDS011;64252;51.094;13.714;2023-04-24T08:07:38;4.38;;;1.08;;
75655;SDS011;64252;51.094;13.714;2023-04-24T08:10:04;4.18;;;0.55;;
75655;SDS011;64252;51.094;13.714;2023-04-24T08:12:30;4.15;;;0.68;;
75655;SDS011;64252;51.094;13.714;2023-04-24T08:14:56;3.25;;;0.40;;
75655;SDS011;64252;51.094;13.714;2023-04-24T08:17:21;1.88;;;0.47;;
75655;SDS011;64252;51.094;13.714;2023-04-24T08:19:47;2.08;;;0.50;;
75655;SDS011;64252;51.094;13.714;2023-04-24T08:22:14;2.38;;;0.38;;
75655;SDS011;64252;51.094;13.714;2023-04-24T08:24:40;2.72;;;0.60;;
75655;SDS011;64252;51.094;13.714;2023-04-24T08:27:06;2.55;;;0.40;;
75655;SDS011;64252;51.094;13.714;2023-04-24T08:29:31;1.70;;;0.40;;
75655;SDS011;64252;51.094;13.714;2023-04-24T08:31:57;1.60;;;0.40;;
75655;SDS011;64252;51.094;13.714;2023-04-24T08:34:22;2.80;;;0.60;;
75655;SDS011;64252;51.094;13.714;2023-04-24T08:36:48;2.65;;;0.50;;
75655;SDS011;64252;51.094;13.714;2023-04-24T08:39:14;2.17;;;0.50;;
75655;SDS011;64252;51.094;13.714;2023-04-24T08:41:44;2.08;;;0.60;;
75655;SDS011;64252;51.094;13.714;2023-04-24T08:44:10;2.53;;;0.30;;
75655;SDS011;64252;51.094;13.714;2023-04-24T08:46:37;2.92;;;0.40;;
75655;SDS011;64252;51.094;13.714;2023-04-24T08:49:05;1.63;;;0.52;;
75655;SDS011;64252;51.094;13.714;2023-04-24T08:51:31;1.73;;;0.52;;
75655;SDS011;64252;51.094;13.714;2023-04-24T08:53:57;3.25;;;0.85;;
75655;SDS011;64252;51.094;13.714;2023-04-24T08:56:23;1.70;;;0.50;;
75655;SDS011;64252;51.094;13.714;2023-04-24T08:58:51;2.35;;;0.40;;
75655;SDS011;64252;51.094;13.714;2023-04-24T09:01:21;6.88;;;0.40;;
75655;SDS011;64252;51.094;13.714;2023-04-24T09:03:50;1.58;;;0.40;;
75655;SDS011;64252;51.094;13.714;2023-04-24T09:06:17;3.78;;;0.30;;
75655;SDS011;64252;51.094;13.714;2023-04-24T09:08:45;2.00;;;0.40;;
75655;SDS011;64252;51.094;13.714;2023-04-24T09:11:10;1.73;;;0.50;;
75655;SDS011;64252;51.094;13.714;2023-04-24T09:13:36;1.90;;;0.47;;
75655;SDS011;64252;51.094;13.714;2023-04-24T09:16:03;1.13;;;0.35;;
75655;SDS011;64252;51.094;13.714;2023-04-24T09:18:28;1.90;;;0.55;;
75655;SDS011;64252;51.094;13.714;2023-04-24T09:20:57;2.72;;;0.73;;
75655;SDS011;64252;51.094;13.714;2023-04-24T09:23:26;3.83;;;0.60;;
75655;SDS011;64252;51.094;13.714;2023-04-24T09:25:55;4.32;;;0.50;;
75655;SDS011;64252;51.094;13.714;2023-04-24T09:28:29;1.30;;;0.30;;
75655;SDS011;64252;51.094;13.714;2023-04-24T09:31:03;2.97;;;0.40;;
75655;SDS011;64252;51.094;13.714;2023-04-24T09:33:32;1.63;;;0.35;;
75655;SDS011;64252;51.094;13.714;2023-04-24T09:35:57;2.25;;;0.50;;
75655;SDS011;64252;51.094;13.714;2023-04-24T09:38:36;1.45;;;0.50;;
75655;SDS011;64252;51.094;13.714;2023-04-24T09:41:04;1.98;;;0.40;;
75655;SDS011;64252;51.094;13.714;2023-04-24T09:43:31;3.08;;;0.43;;
75655;SDS011;64252;51.094;13.714;2023-04-24T09:45:58;2.70;;;0.55;;
75655;SDS011;64252;51.094;13.714;2023-04-24T09:48:31;1.15;;;0.32;;
75655;SDS011;64252;51.094;13.714;2023-04-24T09:50:59;1.80;;;0.60;;
75655;SDS011;64252;51.094;13.714;2023-04-24T09:53:29;1.17;;;0.32;;
75655;SDS011;64252;51.094;13.714;2023-04-24T09:55:56;2.03;;;0.50;;
75655;SDS011;64252;51.094;13.714;2023-04-24T09:58:28;3.05;;;0.50;;
75655;SDS011;64252;51.094;13.714;2023-04-24T10:00:55;1.88;;;0.40;;
75655;SDS011;64252;51.094;13.714;2023-04-24T10:03:25;0.85;;;0.30;;
75655;SDS011;64252;51.094;13.714;2023-04-24T10:05:53;1.25;;;0.32;;
75655;SDS011;64252;51.094;13.714;2023-04-24T10:08:19;1.35;;;0.40;;
75655;SDS011;64252;51.094;13.714;2023-04-24T10:10:46;1.73;;;0.45;;
75655;SDS011;64252;51.094;13.714;2023-04-24T10:13:13;1.48;;;0.50;;
75655;SDS011;64252;51.094;13.714;2023-04-24T10:15:40;1.98;;;0.50;;
75655;SDS011;64252;51.094;13.714;2023-04-24T10:18:07;1.17;;;0.38;;
75655;SDS011;64252;51.094;13.714;2023-04-24T10:20:34;0.90;;;0.30;;
75655;SDS011;64252;51.094;13.714;2023-04-24T10:23:01;2.15;;;0.55;;
75655;SDS011;64252;51.094;13.714;2023-04-24T10:25:29;4.10;;;0.40;;
75655;SDS011;64252;51.094;13.714;2023-04-24T10:27:56;1.55;;;0.40;;
75655;SDS011;64252;51.094;13.714;2023-04-24T10:30:25;1.13;;;0.40;;
75655;SDS011;64252;51.094;13.714;2023-04-24T10:32:52;1.63;;;0.40;;
75655;SDS011;64252;51.094;13.714;2023-04-24T10:35:18;2.22;;;0.60;;
75655;SDS011;64252;51.094;13.714;2023-04-24T10:37:54;0.98;;;0.30;;
75655;SDS011;64252;51.094;13.714;2023-04-24T10:40:26;1.15;;;0.35;;
75655;SDS011;64252;51.094;13.714;2023-04-24T10:42:54;2.08;;;0.50;;
75655;SDS011;64252;51.094;13.714;2023-04-24T10:45:21;0.98;;;0.28;;
75655;SDS011;64252;51.094;13.714;2023-04-24T10:50:29;1.75;;;0.40;;
75655;SDS011;64252;51.094;13.714;2023-04-24T10:53:12;2.67;;;0.40;;
75655;SDS011;64252;51.094;13.714;2023-04-24T10:55:42;2.38;;;0.60;;
75655;SDS011;64252;51.094;13.714;2023-04-24T10:58:08;3.88;;;0.50;;
75655;SDS011;64252;51.094;13.714;2023-04-24T11:00:38;3.13;;;0.57;;
75655;SDS011;64252;51.094;13.714;2023-04-24T11:03:06;2.17;;;0.63;;
75655;SDS011;64252;51.094;13.714;2023-04-24T11:05:51;1.98;;;0.52;;
75655;SDS011;64252;51.094;13.714;2023-04-24T11:08:31;1.98;;;0.70;;
75655;SDS011;64252;51.094;13.714;2023-04-24T11:19:18;3.35;;;0.50;;
75655;SDS011;64252;51.094;13.714;2023-04-24T11:21:56;2.05;;;0.50;;
75655;SDS011;64252;51.094;13.714;2023-04-24T11:24:27;2.08;;;0.35;;
75655;SDS011;64252;51.094;13.714;2023-04-24T11:27:21;3.25;;;0.57;;
75655;SDS011;64252;51.094;13.714;2023-04-24T11:35:13;4.53;;;0.77;;
75655;SDS011;64252;51.094;13.714;2023-04-24T11:40:17;1.65;;;0.38;;
75655;SDS011;64252;51.094;13.714;2023-04-24T11:42:48;1.85;;;0.50;;
75655;SDS011;64252;51.094;13.714;2023-04-24T11:45:18;1.20;;;0.30;;
75655;SDS011;64252;51.094;13.714;2023-04-24T11:47:47;1.67;;;0.40;;
75655;SDS011;64252;51.094;13.714;2023-04-24T11:50:17;1.77;;;0.55;;
75655;SDS011;64252;51.094;13.714;2023-04-24T11:52:44;2.22;;;0.40;;
75655;SDS011;64252;51.094;13.714;2023-04-24T11:57:51;2.15;;;0.40;;
75655;SDS011;64252;51.094;13.714;2023-04-24T12:02:46;1.90;;;0.50;;
75655;SDS011;64252;51.094;13.714;2023-04-24T12:05:21;1.35;;;0.40;;
75655;SDS011;64252;51.094;13.714;2023-04-24T12:07:48;2.25;;;0.60;;
75655;SDS011;64252;51.094;13.714;2023-04-24T12:10:14;1.92;;;0.30;;
75655;SDS011;64252;51.094;13.714;2023-04-24T12:12:44;2.10;;;0.50;;
75655;SDS011;64252;51.094;13.714;2023-04-24T12:15:11;1.80;;;0.40;;
75655;SDS011;64252;51.094;13.714;2023-04-24T12:17:40;1.35;;;0.47;;
75655;SDS011;64252;51.094;13.714;2023-04-24T12:20:07;2.15;;;0.60;;
75655;SDS011;64252;51.094;13.714;2023-04-24T12:22:53;3.78;;;0.68;;
75655;SDS011;64252;51.094;13.714;2023-04-24T12:25:27;1.10;;;0.60;;
75655;SDS011;64252;51.094;13.714;2023-04-24T12:27:54;2.90;;;0.65;;
75655;SDS011;64252;51.094;13.714;2023-04-24T12:30:25;2.88;;;0.40;;
75655;SDS011;64252;51.094;13.714;2023-04-24T12:33:00;1.77;;;0.70;;
75655;SDS011;64252;51.094;13.714;2023-04-24T12:35:28;1.30;;;0.50;;
75655;SDS011;64252;51.094;13.714;2023-04-24T12:38:04;2.53;;;0.50;;
75655;SDS011;64252;51.094;13.714;2023-04-24T12:40:31;2.67;;;0.60;;
75655;SDS011;64252;51.094;13.714;2023-04-24T12:42:57;3.05;;;0.52;;
75655;SDS011;64252;51.094;13.714;2023-04-24T12:45:22;1.40;;;0.47;;
75655;SDS011;64252;51.094;13.714;2023-04-24T12:47:50;3.10;;;1.15;;
75655;SDS011;64252;51.094;13.714;2023-04-24T12:50:16;3.13;;;0.80;;
75655;SDS011;64252;51.094;13.714;2023-04-24T12:52:42;3.13;;;0.70;;
75655;SDS011;64252;51.094;13.714;2023-04-24T12:55:08;3.22;;;0.70;;
75655;SDS011;64252;51.094;13.714;2023-04-24T12:57:35;1.60;;;0.55;;
75655;SDS011;64252;51.094;13.714;2023-04-24T13:00:02;3.55;;;0.70;;
75655;SDS011;64252;51.094;13.714;2023-04-24T13:02:30;1.70;;;0.60;;
75655;SDS011;64252;51.094;13.714;2023-04-24T13:04:56;2.80;;;0.60;;
75655;SDS011;64252;51.094;13.714;2023-04-24T13:07:23;1.10;;;0.63;;
75655;SDS011;64252;51.094;13.714;2023-04-24T13:09:49;2.55;;;0.60;;
75655;SDS011;64252;51.094;13.714;2023-04-24T13:12:15;2.50;;;0.77;;
75655;SDS011;64252;51.094;13.714;2023-04-24T13:14:41;2.35;;;0.60;;
75655;SDS011;64252;51.094;13.714;2023-04-24T13:17:07;1.48;;;0.57;;
75655;SDS011;64252;51.094;13.714;2023-04-24T13:19:36;1.60;;;0.60;;
75655;SDS011;64252;51.094;13.714;2023-04-24T13:22:03;3.55;;;0.70;;
75655;SDS011;64252;51.094;13.714;2023-04-24T13:24:29;1.83;;;0.47;;
75655;SDS011;64252;51.094;13.714;2023-04-24T13:26:56;2.22;;;0.60;;
75655;SDS011;64252;51.094;13.714;2023-04-24T13:29:22;2.92;;;1.13;;
75655;SDS011;64252;51.094;13.714;2023-04-24T13:31:51;6.28;;;1.50;;
75655;SDS011;64252;51.094;13.714;2023-04-24T13:34:20;2.58;;;0.90;;
75655;SDS011;64252;51.094;13.714;2023-04-24T13:36:45;3.00;;;0.60;;
75655;SDS011;64252;51.094;13.714;2023-04-24T13:39:11;2.25;;;0.70;;
75655;SDS011;64252;51.094;13.714;2023-04-24T13:41:37;3.13;;;0.73;;
75655;SDS011;64252;51.094;13.714;2023-04-24T13:44:03;3.58;;;0.77;;
75655;SDS011;64252;51.094;13.714;2023-04-24T13:46:29;2.55;;;0.70;;
75655;SDS011;64252;51.094;13.714;2023-04-24T13:48:55;1.40;;;0.50;;
75655;SDS011;64252;51.094;13.714;2023-04-24T13:51:22;3.10;;;0.60;;
75655;SDS011;64252;51.094;13.714;2023-04-24T13:53:48;4.22;;;1.42;;
75655;SDS011;64252;51.094;13.714;2023-04-24T13:56:13;2.15;;;0.57;;
75655;SDS011;64252;51.094;13.714;2023-04-24T13:58:39;3.42;;;0.63;;
75655;SDS011;64252;51.094;13.714;2023-04-24T14:01:05;1.80;;;0.60;;
75655;SDS011;64252;51.094;13.714;2023-04-24T14:03:32;1.20;;;0.45;;
75655;SDS011;64252;51.094;13.714;2023-04-24T14:05:58;1.25;;;0.50;;
75655;SDS011;64252;51.094;13.714;2023-04-24T14:08:24;4.63;;;0.80;;
75655;SDS011;64252;51.094;13.714;2023-04-24T14:10:50;1.73;;;0.50;;
75655;SDS011;64252;51.094;13.714;2023-04-24T14:13:16;1.58;;;0.50;;
75655;SDS011;64252;51.094;13.714;2023-04-24T14:15:41;2.45;;;0.50;;
75655;SDS011;64252;51.094;13.714;2023-04-24T14:18:07;3.20;;;0.80;;
75655;SDS011;64252;51.094;13.714;2023-04-24T14:20:32;3.40;;;0.65;;
75655;SDS011;64252;51.094;13.714;2023-04-24T14:22:58;1.15;;;0.50;;
75655;SDS011;64252;51.094;13.714;2023-04-24T14:25:26;1.50;;;0.68;;
75655;SDS011;64252;51.094;13.714;2023-04-24T14:27:52;2.03;;;0.68;;
75655;SDS011;64252;51.094;13.714;2023-04-24T14:30:18;3.95;;;1.33;;
75655;SDS011;64252;51.094;13.714;2023-04-24T14:32:44;4.50;;;0.70;;
75655;SDS011;64252;51.094;13.714;2023-04-24T14:35:09;3.53;;;0.52;;
75655;SDS011;64252;51.094;13.714;2023-04-24T14:37:35;2.85;;;0.63;;
75655;SDS011;64252;51.094;13.714;2023-04-24T14:40:01;3.03;;;0.90;;
75655;SDS011;64252;51.094;13.714;2023-04-24T14:42:27;4.63;;;1.02;;
75655;SDS011;64252;51.094;13.714;2023-04-24T14:44:53;1.38;;;0.43;;
75655;SDS011;64252;51.094;13.714;2023-04-24T14:47:19;1.60;;;0.50;;
75655;SDS011;64252;51.094;13.714;2023-04-24T14:49:47;1.60;;;0.60;;
75655;SDS011;64252;51.094;13.714;2023-04-24T14:52:13;1.92;;;0.63;;
75655;SDS011;64252;51.094;13.714;2023-04-24T14:54:39;4.35;;;0.65;;
75655;SDS011;64252;51.094;13.714;2023-04-24T14:57:04;2.13;;;0.60;;
75655;SDS011;64252;51.094;13.714;2023-04-24T14:59:30;2.20;;;0.90;;